sensor_id;sensor_type;location;lat;lon;timestamp;pressure;altitude;pressure_sealevel;temperature;humidity
71299;BME280;59083;47.974;21.722;2022-09-12T00:00:18;100129.22;;;15.04;95.65
71299;BME280;59083;47.974;21.722;2022-09-12T00:03:19;100131.81;;;15.10;94.82
71299;BME280;59083;47.974;21.722;2022-09-12T00:06:24;100125.94;;;15.02;93.99
71299;BME280;59083;47.974;21.722;2022-09-12T00:09:25;100120.38;;;15.03;93.18
71299;BME280;59083;47.974;21.722;2022-09-12T00:12:26;100127.88;;;15.13;92.55
71299;BME280;59083;47.974;21.722;2022-09-12T00:15:28;100129.47;;;15.02;91.61
71299;BME280;59083;47.974;21.722;2022-09-12T00:18:30;100132.72;;;15.04;90.69
71299;BME280;59083;47.974;21.722;2022-09-12T00:21:34;100133.59;;;14.98;90.95
71299;BME280;59083;47.974;21.722;2022-09-12T00:24:35;100137.41;;;14.91;89.92
71299;BME280;59083;47.974;21.722;2022-09-12T00:27:36;100128.09;;;14.93;90.26
71299;BME280;59083;47.974;21.722;2022-09-12T00:30:45;100137.47;;;14.84;89.87
71299;BME280;59083;47.974;21.722;2022-09-12T00:33:47;100132.22;;;14.71;89.59
71299;BME280;59083;47.974;21.722;2022-09-12T00:36:48;100125.66;;;14.67;89.71
71299;BME280;59083;47.974;21.722;2022-09-12T00:39:50;100131.59;;;14.51;89.11
71299;BME280;59083;47.974;21.722;2022-09-12T00:42:51;100136.19;;;14.43;89.74
71299;BME280;59083;47.974;21.722;2022-09-12T00:45:52;100132.94;;;14.35;90.24
71299;BME280;59083;47.974;21.722;2022-09-12T00:49:10;100136.69;;;14.27;90.17
71299;BME280;59083;47.974;21.722;2022-09-12T00:52:30;100144.94;;;14.26;90.06
71299;BME280;59083;47.974;21.722;2022-09-12T00:55:45;100143.34;;;14.18;90.17
71299;BME280;59083;47.974;21.722;2022-09-12T00:58:54;100139.63;;;14.19;89.99
71299;BME280;59083;47.974;21.722;2022-09-12T01:01:57;100133.06;;;14.15;89.35
71299;BME280;59083;47.974;21.722;2022-09-12T01:04:59;100132.28;;;14.08;88.46
71299;BME280;59083;47.974;21.722;2022-09-12T01:08:04;100131.69;;;14.06;88.18
71299;BME280;59083;47.974;21.722;2022-09-12T01:11:07;100140.56;;;14.06;87.57
71299;BME280;59083;47.974;21.722;2022-09-12T01:14:09;100136.44;;;14.04;87.52
71299;BME280;59083;47.974;21.722;2022-09-12T01:17:12;100133.91;;;14.09;87.21
71299;BME280;59083;47.974;21.722;2022-09-12T01:40:41;100134.00;;;13.96;87.45
71299;BME280;59083;47.974;21.722;2022-09-12T01:47:17;100135.81;;;14.02;87.48
71299;BME280;59083;47.974;21.722;2022-09-12T01:50:29;100134.38;;;14.06;87.11
71299;BME280;59083;47.974;21.722;2022-09-12T01:53:38;100136.44;;;14.04;87.03
71299;BME280;59083;47.974;21.722;2022-09-12T01:56:43;100138.91;;;14.05;87.50
71299;BME280;59083;47.974;21.722;2022-09-12T01:59:50;100133.59;;;13.99;87.74
71299;BME280;59083;47.974;21.722;2022-09-12T02:03:06;100129.88;;;14.00;87.77
71299;BME280;59083;47.974;21.722;2022-09-12T02:06:18;100129.88;;;14.00;87.41
71299;BME280;59083;47.974;21.722;2022-09-12T02:09:28;100128.22;;;13.99;87.67
71299;BME280;59083;47.974;21.722;2022-09-12T02:12:38;100137.75;;;13.95;88.52
71299;BME280;59083;47.974;21.722;2022-09-12T02:15:51;100134.00;;;13.96;87.82
71299;BME280;59083;47.974;21.722;2022-09-12T02:18:58;100129.50;;;13.90;87.57
71299;BME280;59083;47.974;21.722;2022-09-12T02:22:02;100135.28;;;13.87;87.94
71299;BME280;59083;47.974;21.722;2022-09-12T02:25:05;100135.47;;;13.92;87.84
71299;BME280;59083;47.974;21.722;2022-09-12T02:28:12;100131.59;;;13.88;87.57
71299;BME280;59083;47.974;21.722;2022-09-12T02:31:27;100134.94;;;13.77;87.31
71299;BME280;59083;47.974;21.722;2022-09-12T02:34:43;100128.75;;;13.76;87.94
71299;BME280;59083;47.974;21.722;2022-09-12T02:38:12;100128.00;;;13.62;87.64
71299;BME280;59083;47.974;21.722;2022-09-12T02:41:18;100125.50;;;13.68;87.72
71299;BME280;59083;47.974;21.722;2022-09-12T02:44:21;100125.56;;;13.61;88.12
71299;BME280;59083;47.974;21.722;2022-09-12T02:47:27;100129.28;;;13.53;88.70
71299;BME280;59083;47.974;21.722;2022-09-12T02:50:31;100125.81;;;13.46;89.09
71299;BME280;59083;47.974;21.722;2022-09-12T02:53:32;100128.13;;;13.36;89.37
71299;BME280;59083;47.974;21.722;2022-09-12T02:56:34;100135.97;;;13.31;89.81
71299;BME280;59083;47.974;21.722;2022-09-12T02:59:35;100140.06;;;13.27;90.44
71299;BME280;59083;47.974;21.722;2022-09-12T03:06:17;100129.81;;;13.11;90.97
71299;BME280;59083;47.974;21.722;2022-09-12T03:16:34;100142.59;;;13.09;92.07
71299;BME280;59083;47.974;21.722;2022-09-12T03:19:46;100142.59;;;13.09;92.95
71299;BME280;59083;47.974;21.722;2022-09-12T03:22:57;100148.34;;;13.06;94.85
71299;BME280;59083;47.974;21.722;2022-09-12T03:29:23;100153.69;;;13.06;96.22
71299;BME280;59083;47.974;21.722;2022-09-12T03:32:49;100157.41;;;13.05;96.60
71299;BME280;59083;47.974;21.722;2022-09-12T03:35:51;100152.06;;;13.05;95.49
71299;BME280;59083;47.974;21.722;2022-09-12T03:38:52;100155.97;;;13.09;93.63
71299;BME280;59083;47.974;21.722;2022-09-12T03:41:54;100148.38;;;13.12;90.56
71299;BME280;59083;47.974;21.722;2022-09-12T03:44:56;100158.22;;;13.18;90.40
71299;BME280;59083;47.974;21.722;2022-09-12T03:47:57;100151.03;;;13.19;89.20
71299;BME280;59083;47.974;21.722;2022-09-12T03:51:00;100156.59;;;13.17;88.50
71299;BME280;59083;47.974;21.722;2022-09-12T03:54:02;100152.91;;;13.12;88.41
71299;BME280;59083;47.974;21.722;2022-09-12T03:57:03;100159.47;;;13.03;88.61
71299;BME280;59083;47.974;21.722;2022-09-12T04:00:06;100157.00;;;12.95;88.36
71299;BME280;59083;47.974;21.722;2022-09-12T04:03:13;100161.12;;;12.91;88.92
71299;BME280;59083;47.974;21.722;2022-09-12T04:06:17;100168.34;;;12.90;89.69
71299;BME280;59083;47.974;21.722;2022-09-12T04:09:19;100170.38;;;12.88;90.63
71299;BME280;59083;47.974;21.722;2022-09-12T04:12:20;100172.66;;;12.84;92.27
71299;BME280;59083;47.974;21.722;2022-09-12T04:15:21;100178.00;;;12.84;92.44
71299;BME280;59083;47.974;21.722;2022-09-12T04:18:23;100175.16;;;12.79;93.09
71299;BME280;59083;47.974;21.722;2022-09-12T04:21:24;100167.31;;;12.78;93.59
71299;BME280;59083;47.974;21.722;2022-09-12T04:24:25;100177.38;;;12.76;93.84
71299;BME280;59083;47.974;21.722;2022-09-12T04:27:27;100171.44;;;12.67;94.18
71299;BME280;59083;47.974;21.722;2022-09-12T04:30:28;100180.09;;;12.69;94.21
71299;BME280;59083;47.974;21.722;2022-09-12T04:33:29;100173.91;;;12.75;94.82
71299;BME280;59083;47.974;21.722;2022-09-12T04:36:31;100183.56;;;12.83;93.87
71299;BME280;59083;47.974;21.722;2022-09-12T04:39:34;100188.91;;;12.90;93.64
71299;BME280;59083;47.974;21.722;2022-09-12T04:42:35;100182.53;;;12.91;93.26
71299;BME280;59083;47.974;21.722;2022-09-12T04:45:36;100189.53;;;12.92;93.24
71299;BME280;59083;47.974;21.722;2022-09-12T04:48:38;100187.06;;;12.97;93.25
71299;BME280;59083;47.974;21.722;2022-09-12T04:51:41;100194.84;;;13.05;93.23
71299;BME280;59083;47.974;21.722;2022-09-12T04:54:42;100191.78;;;13.08;92.69
71299;BME280;59083;47.974;21.722;2022-09-12T04:57:44;100196.53;;;13.12;92.10
71299;BME280;59083;47.974;21.722;2022-09-12T05:00:45;100209.66;;;13.27;91.87
71299;BME280;59083;47.974;21.722;2022-09-12T05:03:47;100203.44;;;13.97;89.08
71299;BME280;59083;47.974;21.722;2022-09-12T05:06:49;100206.78;;;14.24;86.62
71299;BME280;59083;47.974;21.722;2022-09-12T05:09:50;100212.63;;;14.15;85.92
71299;BME280;59083;47.974;21.722;2022-09-12T05:12:52;100225.53;;;13.93;86.50
71299;BME280;59083;47.974;21.722;2022-09-12T05:15:54;100221.16;;;14.36;85.26
71299;BME280;59083;47.974;21.722;2022-09-12T05:18:56;100222.84;;;16.09;79.01
71299;BME280;59083;47.974;21.722;2022-09-12T05:21:58;100227.03;;;17.82;70.44
71299;BME280;59083;47.974;21.722;2022-09-12T05:24:59;100231.03;;;19.48;64.51
71299;BME280;59083;47.974;21.722;2022-09-12T05:28:01;100233.91;;;20.50;62.68
71299;BME280;59083;47.974;21.722;2022-09-12T05:31:07;100237.59;;;21.02;58.08
71299;BME280;59083;47.974;21.722;2022-09-12T05:34:08;100235.19;;;21.48;56.27
71299;BME280;59083;47.974;21.722;2022-09-12T05:37:10;100242.44;;;21.79;55.96
71299;BME280;59083;47.974;21.722;2022-09-12T05:40:11;100243.13;;;22.17;54.30
71299;BME280;59083;47.974;21.722;2022-09-12T05:43:16;100233.25;;;22.78;49.84
71299;BME280;59083;47.974;21.722;2022-09-12T05:46:18;100240.50;;;23.43;49.89
71299;BME280;59083;47.974;21.722;2022-09-12T05:49:20;100236.66;;;23.65;47.65
71299;BME280;59083;47.974;21.722;2022-09-12T05:52:21;100232.25;;;23.84;46.14
71299;BME280;59083;47.974;21.722;2022-09-12T05:55:22;100229.12;;;24.11;47.03
71299;BME280;59083;47.974;21.722;2022-09-12T05:58:24;100242.66;;;22.50;48.49
71299;BME280;59083;47.974;21.722;2022-09-12T06:01:26;100224.00;;;22.99;47.29
71299;BME280;59083;47.974;21.722;2022-09-12T06:04:28;100235.12;;;23.08;45.07
71299;BME280;59083;47.974;21.722;2022-09-12T06:07:29;100226.63;;;23.45;45.04
71299;BME280;59083;47.974;21.722;2022-09-12T06:10:32;100227.75;;;24.13;44.23
71299;BME280;59083;47.974;21.722;2022-09-12T06:13:35;100233.00;;;24.54;42.39
71299;BME280;59083;47.974;21.722;2022-09-12T06:16:38;100234.25;;;25.05;41.37
71299;BME280;59083;47.974;21.722;2022-09-12T06:19:39;100236.00;;;24.86;41.54
71299;BME280;59083;47.974;21.722;2022-09-12T06:22:40;100236.09;;;25.39;40.45
71299;BME280;59083;47.974;21.722;2022-09-12T06:25:46;100240.31;;;25.26;40.22
71299;BME280;59083;47.974;21.722;2022-09-12T06:28:51;100232.91;;;25.56;39.84
71299;BME280;59083;47.974;21.722;2022-09-12T06:31:53;100238.94;;;25.52;39.33
71299;BME280;59083;47.974;21.722;2022-09-12T06:34:54;100236.53;;;25.46;40.48
71299;BME280;59083;47.974;21.722;2022-09-12T06:37:56;100240.34;;;25.50;38.68
71299;BME280;59083;47.974;21.722;2022-09-12T06:40:57;100246.00;;;24.62;41.20
71299;BME280;59083;47.974;21.722;2022-09-12T06:43:59;100243.84;;;24.05;42.00
71299;BME280;59083;47.974;21.722;2022-09-12T06:47:01;100251.66;;;23.47;43.99
71299;BME280;59083;47.974;21.722;2022-09-12T06:50:02;100242.72;;;22.81;46.06
71299;BME280;59083;47.974;21.722;2022-09-12T06:53:04;100258.72;;;22.57;46.81
71299;BME280;59083;47.974;21.722;2022-09-12T06:56:10;100254.53;;;22.09;46.47
71299;BME280;59083;47.974;21.722;2022-09-12T06:59:12;100259.09;;;21.51;47.08
71299;BME280;59083;47.974;21.722;2022-09-12T07:02:13;100247.41;;;21.14;49.41
71299;BME280;59083;47.974;21.722;2022-09-12T07:05:15;100261.09;;;20.16;49.52
71299;BME280;59083;47.974;21.722;2022-09-12T07:08:16;100256.31;;;20.23;50.87
71299;BME280;59083;47.974;21.722;2022-09-12T07:11:20;100255.47;;;19.96;52.32
71299;BME280;59083;47.974;21.722;2022-09-12T07:14:21;100249.72;;;20.14;54.52
71299;BME280;59083;47.974;21.722;2022-09-12T07:17:23;100263.59;;;20.45;50.99
71299;BME280;59083;47.974;21.722;2022-09-12T07:20:24;100256.16;;;20.57;48.98
71299;BME280;59083;47.974;21.722;2022-09-12T07:23:25;100248.50;;;20.49;46.48
71299;BME280;59083;47.974;21.722;2022-09-12T07:26:28;100259.25;;;20.39;47.61
71299;BME280;59083;47.974;21.722;2022-09-12T07:29:29;100258.91;;;20.13;50.63
71299;BME280;59083;47.974;21.722;2022-09-12T07:32:30;100263.84;;;20.38;49.78
71299;BME280;59083;47.974;21.722;2022-09-12T07:35:32;100261.41;;;20.42;50.64
71299;BME280;59083;47.974;21.722;2022-09-12T07:38:34;100258.72;;;20.42;52.74
71299;BME280;59083;47.974;21.722;2022-09-12T07:41:35;100251.25;;;20.54;51.46
71299;BME280;59083;47.974;21.722;2022-09-12T07:44:36;100255.03;;;20.53;51.69
71299;BME280;59083;47.974;21.722;2022-09-12T07:47:38;100241.34;;;20.38;51.06
71299;BME280;59083;47.974;21.722;2022-09-12T07:50:40;100258.00;;;20.30;53.31
71299;BME280;59083;47.974;21.722;2022-09-12T07:53:42;100262.28;;;19.82;55.65
71299;BME280;59083;47.974;21.722;2022-09-12T07:56:43;100265.28;;;19.80;53.31
71299;BME280;59083;47.974;21.722;2022-09-12T07:59:45;100264.13;;;20.42;51.24
71299;BME280;59083;47.974;21.722;2022-09-12T08:02:52;100266.78;;;20.37;51.19
71299;BME280;59083;47.974;21.722;2022-09-12T08:05:54;100256.84;;;20.20;50.08
71299;BME280;59083;47.974;21.722;2022-09-12T08:08:57;100259.88;;;20.02;48.88
71299;BME280;59083;47.974;21.722;2022-09-12T08:11:59;100250.41;;;19.45;51.22
71299;BME280;59083;47.974;21.722;2022-09-12T08:15:00;100251.50;;;19.27;50.01
71299;BME280;59083;47.974;21.722;2022-09-12T08:18:02;100242.34;;;19.11;50.59
71299;BME280;59083;47.974;21.722;2022-09-12T08:21:09;100250.03;;;19.53;51.09
71299;BME280;59083;47.974;21.722;2022-09-12T08:24:12;100242.09;;;20.11;54.45
71299;BME280;59083;47.974;21.722;2022-09-12T08:27:13;100240.22;;;19.90;55.35
71299;BME280;59083;47.974;21.722;2022-09-12T08:30:15;100240.22;;;19.90;55.31
71299;BME280;59083;47.974;21.722;2022-09-12T08:33:16;100241.50;;;20.04;56.21
71299;BME280;59083;47.974;21.722;2022-09-12T08:36:19;100241.66;;;20.19;55.07
71299;BME280;59083;47.974;21.722;2022-09-12T08:39:21;100235.25;;;20.26;54.83
71299;BME280;59083;47.974;21.722;2022-09-12T08:42:48;100239.72;;;20.37;54.25
71299;BME280;59083;47.974;21.722;2022-09-12T08:46:07;100243.59;;;20.46;53.34
71299;BME280;59083;47.974;21.722;2022-09-12T08:49:14;100236.87;;;20.27;55.51
71299;BME280;59083;47.974;21.722;2022-09-12T08:52:56;100234.78;;;20.34;54.32
71299;BME280;59083;47.974;21.722;2022-09-12T08:55:59;100237.34;;;20.72;53.97
71299;BME280;59083;47.974;21.722;2022-09-12T08:59:00;100237.78;;;21.23;51.84
71299;BME280;59083;47.974;21.722;2022-09-12T09:02:04;100236.47;;;20.98;53.18
71299;BME280;59083;47.974;21.722;2022-09-12T09:12:28;100232.44;;;20.69;55.83
71299;BME280;59083;47.974;21.722;2022-09-12T09:19:03;100221.38;;;20.44;53.54
71299;BME280;59083;47.974;21.722;2022-09-12T09:22:15;100220.81;;;20.42;54.83
71299;BME280;59083;47.974;21.722;2022-09-12T09:25:25;100228.84;;;20.10;54.27
71299;BME280;59083;47.974;21.722;2022-09-12T09:31:47;100225.38;;;20.14;56.77
71299;BME280;59083;47.974;21.722;2022-09-12T09:34:48;100219.78;;;20.48;54.95
71299;BME280;59083;47.974;21.722;2022-09-12T09:38:02;100219.78;;;20.48;53.17
71299;BME280;59083;47.974;21.722;2022-09-12T09:44:30;100233.72;;;20.35;54.08
71299;BME280;59083;47.974;21.722;2022-09-12T09:47:31;100229.97;;;20.14;54.92
71299;BME280;59083;47.974;21.722;2022-09-12T09:50:32;100232.19;;;20.22;54.49
71299;BME280;59083;47.974;21.722;2022-09-12T09:53:53;100227.69;;;20.06;54.70
71299;BME280;59083;47.974;21.722;2022-09-12T09:56:56;100231.56;;;20.10;55.30
71299;BME280;59083;47.974;21.722;2022-09-12T09:59:57;100229.66;;;20.10;55.25
71299;BME280;59083;47.974;21.722;2022-09-12T10:06:28;100220.50;;;20.38;57.33
71299;BME280;59083;47.974;21.722;2022-09-12T10:09:33;100231.06;;;20.98;55.19
71299;BME280;59083;47.974;21.722;2022-09-12T10:12:35;100223.84;;;21.14;52.70
71299;BME280;59083;47.974;21.722;2022-09-12T10:15:36;100222.12;;;21.03;53.46
71299;BME280;59083;47.974;21.722;2022-09-12T10:18:41;100219.63;;;20.91;55.76
71299;BME280;59083;47.974;21.722;2022-09-12T10:21:50;100216.37;;;20.89;54.40
71299;BME280;59083;47.974;21.722;2022-09-12T10:24:55;100217.97;;;20.90;51.23
71299;BME280;59083;47.974;21.722;2022-09-12T10:27:59;100218.62;;;20.71;52.33
71299;BME280;59083;47.974;21.722;2022-09-12T10:31:01;100224.19;;;20.54;52.08
71299;BME280;59083;47.974;21.722;2022-09-12T10:34:02;100213.50;;;20.74;54.27
71299;BME280;59083;47.974;21.722;2022-09-12T10:41:02;100225.03;;;21.23;53.47
71299;BME280;59083;47.974;21.722;2022-09-12T10:44:14;100219.56;;;20.86;52.63
71299;BME280;59083;47.974;21.722;2022-09-12T10:47:22;100225.38;;;20.14;53.62
71299;BME280;59083;47.974;21.722;2022-09-12T10:50:32;100218.62;;;20.39;53.91
71299;BME280;59083;47.974;21.722;2022-09-12T10:53:42;100215.91;;;21.02;53.97
71299;BME280;59083;47.974;21.722;2022-09-12T10:56:55;100212.12;;;21.03;50.54
71299;BME280;59083;47.974;21.722;2022-09-12T11:13:29;100207.53;;;21.41;48.93
71299;BME280;59083;47.974;21.722;2022-09-12T11:17:05;100216.75;;;21.40;49.12
71299;BME280;59083;47.974;21.722;2022-09-12T11:24:16;100209.56;;;21.19;48.65
71299;BME280;59083;47.974;21.722;2022-09-12T11:34:26;100214.19;;;20.91;50.29
71299;BME280;59083;47.974;21.722;2022-09-12T11:40:54;100214.31;;;21.07;52.21
71299;BME280;59083;47.974;21.722;2022-09-12T11:47:06;100216.75;;;21.08;50.92
71299;BME280;59083;47.974;21.722;2022-09-12T11:50:30;100216.00;;;21.13;51.12
71299;BME280;59083;47.974;21.722;2022-09-12T11:53:37;100209.00;;;21.17;50.10
71299;BME280;59083;47.974;21.722;2022-09-12T11:56:44;100204.19;;;21.29;50.60
71299;BME280;59083;47.974;21.722;2022-09-12T12:00:18;100206.41;;;21.37;50.61
71299;BME280;59083;47.974;21.722;2022-09-12T12:03:33;100202.28;;;21.24;50.05
71299;BME280;59083;47.974;21.722;2022-09-12T12:06:51;100200.88;;;21.17;48.67
71299;BME280;59083;47.974;21.722;2022-09-12T12:09:55;100203.53;;;21.12;49.38
71299;BME280;59083;47.974;21.722;2022-09-12T12:12:58;100201.06;;;21.10;49.83
71299;BME280;59083;47.974;21.722;2022-09-12T12:16:05;100203.47;;;21.01;49.76
71299;BME280;59083;47.974;21.722;2022-09-12T12:22:21;100198.59;;;21.09;50.92
71299;BME280;59083;47.974;21.722;2022-09-12T12:25:36;100189.34;;;20.99;48.27
71299;BME280;59083;47.974;21.722;2022-09-12T12:38:39;100188.16;;;20.90;49.55
71299;BME280;59083;47.974;21.722;2022-09-12T12:41:44;100183.53;;;20.86;49.71
71299;BME280;59083;47.974;21.722;2022-09-12T12:44:48;100188.25;;;20.95;49.14
71299;BME280;59083;47.974;21.722;2022-09-12T12:48:06;100181.25;;;21.04;50.05
71299;BME280;59083;47.974;21.722;2022-09-12T12:51:29;100181.53;;;21.08;46.12
71299;BME280;59083;47.974;21.722;2022-09-12T13:04:17;100172.31;;;21.09;47.57
71299;BME280;59083;47.974;21.722;2022-09-12T13:07:39;100187.34;;;21.22;47.79
71299;BME280;59083;47.974;21.722;2022-09-12T13:10:51;100181.34;;;21.20;48.63
71299;BME280;59083;47.974;21.722;2022-09-12T13:14:05;100175.44;;;21.23;48.91
71299;BME280;59083;47.974;21.722;2022-09-12T13:17:21;100173.78;;;21.22;48.86
71299;BME280;59083;47.974;21.722;2022-09-12T13:20:25;100175.97;;;21.25;49.65
71299;BME280;59083;47.974;21.722;2022-09-12T13:23:30;100167.28;;;21.23;48.64
71299;BME280;59083;47.974;21.722;2022-09-12T13:26:34;100167.38;;;21.38;48.70
71299;BME280;59083;47.974;21.722;2022-09-12T13:29:36;100171.75;;;21.49;46.86
71299;BME280;59083;47.974;21.722;2022-09-12T13:32:38;100166.88;;;21.46;47.63
71299;BME280;59083;47.974;21.722;2022-09-12T13:36:08;100171.66;;;21.29;48.39
71299;BME280;59083;47.974;21.722;2022-09-12T13:39:27;100175.97;;;21.25;48.74
71299;BME280;59083;47.974;21.722;2022-09-12T13:42:47;100175.91;;;21.15;48.16
71299;BME280;59083;47.974;21.722;2022-09-12T13:45:51;100174.31;;;21.19;48.96
71299;BME280;59083;47.974;21.722;2022-09-12T13:48:52;100182.97;;;21.16;48.78
71299;BME280;59083;47.974;21.722;2022-09-12T13:52:00;100177.50;;;21.11;48.00
71299;BME280;59083;47.974;21.722;2022-09-12T13:55:05;100177.75;;;21.09;47.88
71299;BME280;59083;47.974;21.722;2022-09-12T13:58:27;100171.94;;;21.27;48.42
71299;BME280;59083;47.974;21.722;2022-09-12T14:01:45;100167.94;;;21.45;48.54
71299;BME280;59083;47.974;21.722;2022-09-12T14:04:49;100161.97;;;21.43;48.42
71299;BME280;59083;47.974;21.722;2022-09-12T14:08:11;100170.62;;;21.35;48.09
71299;BME280;59083;47.974;21.722;2022-09-12T14:11:26;100171.31;;;21.15;48.90
71299;BME280;59083;47.974;21.722;2022-09-12T14:14:36;100168.69;;;20.93;47.89
71299;BME280;59083;47.974;21.722;2022-09-12T14:17:49;100173.66;;;20.70;47.90
71299;BME280;59083;47.974;21.722;2022-09-12T14:20:52;100174.41;;;20.60;48.39
71299;BME280;59083;47.974;21.722;2022-09-12T14:23:57;100161.44;;;20.08;49.17
71299;BME280;59083;47.974;21.722;2022-09-12T14:27:00;100175.41;;;20.00;49.14
71299;BME280;59083;47.974;21.722;2022-09-12T14:30:13;100165.50;;;19.84;50.01
71299;BME280;59083;47.974;21.722;2022-09-12T14:33:19;100178.34;;;19.72;51.58
71299;BME280;59083;47.974;21.722;2022-09-12T14:36:26;100171.81;;;19.68;52.07
71299;BME280;59083;47.974;21.722;2022-09-12T14:39:37;100170.16;;;19.67;51.89
71299;BME280;59083;47.974;21.722;2022-09-12T14:42:40;100171.81;;;19.68;51.65
71299;BME280;59083;47.974;21.722;2022-09-12T14:45:42;100177.22;;;19.68;52.33
71299;BME280;59083;47.974;21.722;2022-09-12T14:48:57;100167.41;;;19.62;52.30
71299;BME280;59083;47.974;21.722;2022-09-12T14:52:02;100174.47;;;19.63;52.27
71299;BME280;59083;47.974;21.722;2022-09-12T14:58:26;100182.16;;;19.54;51.16
71299;BME280;59083;47.974;21.722;2022-09-12T15:01:28;100173.19;;;19.49;51.76
71299;BME280;59083;47.974;21.722;2022-09-12T15:04:43;100172.03;;;19.45;52.25
71299;BME280;59083;47.974;21.722;2022-09-12T15:10:50;100184.81;;;19.49;51.19
71299;BME280;59083;47.974;21.722;2022-09-12T15:13:51;100177.03;;;19.53;50.42
71299;BME280;59083;47.974;21.722;2022-09-12T15:16:52;100180.88;;;19.57;49.93
71299;BME280;59083;47.974;21.722;2022-09-12T15:19:54;100178.22;;;19.62;49.58
71299;BME280;59083;47.974;21.722;2022-09-12T15:22:55;100182.31;;;19.64;47.88
71299;BME280;59083;47.974;21.722;2022-09-12T15:25:57;100181.22;;;19.65;46.58
71299;BME280;59083;47.974;21.722;2022-09-12T15:28:58;100190.50;;;19.69;46.06
71299;BME280;59083;47.974;21.722;2022-09-12T15:32:00;100192.87;;;19.66;45.88
71299;BME280;59083;47.974;21.722;2022-09-12T15:35:01;100206.31;;;19.61;45.38
71299;BME280;59083;47.974;21.722;2022-09-12T15:38:03;100200.38;;;19.59;45.24
71299;BME280;59083;47.974;21.722;2022-09-12T15:41:18;100197.72;;;19.64;44.65
71299;BME280;59083;47.974;21.722;2022-09-12T15:44:20;100209.66;;;19.68;44.50
71299;BME280;59083;47.974;21.722;2022-09-12T15:47:23;100217.25;;;19.49;44.78
71299;BME280;59083;47.974;21.722;2022-09-12T15:50:24;100232.19;;;19.18;45.29
71299;BME280;59083;47.974;21.722;2022-09-12T15:53:26;100228.44;;;19.03;45.45
71299;BME280;59083;47.974;21.722;2022-09-12T15:56:28;100229.53;;;18.85;46.28
71299;BME280;59083;47.974;21.722;2022-09-12T15:59:29;100230.06;;;18.70;46.29
71299;BME280;59083;47.974;21.722;2022-09-12T16:02:31;100258.53;;;18.61;47.14
71299;BME280;59083;47.974;21.722;2022-09-12T16:05:32;100245.44;;;18.41;47.37
71299;BME280;59083;47.974;21.722;2022-09-12T16:08:34;100253.69;;;18.35;47.45
71299;BME280;59083;47.974;21.722;2022-09-12T16:11:37;100254.69;;;18.17;47.38
71299;BME280;59083;47.974;21.722;2022-09-12T16:14:38;100259.00;;;17.90;47.77
71299;BME280;59083;47.974;21.722;2022-09-12T16:17:39;100265.13;;;17.73;48.40
71299;BME280;59083;47.974;21.722;2022-09-12T16:20:41;100254.47;;;17.55;48.12
71299;BME280;59083;47.974;21.722;2022-09-12T16:23:43;100264.69;;;17.53;47.76
71299;BME280;59083;47.974;21.722;2022-09-12T16:26:45;100257.31;;;17.37;48.51
71299;BME280;59083;47.974;21.722;2022-09-12T16:29:46;100261.97;;;17.30;48.66
71299;BME280;59083;47.974;21.722;2022-09-12T16:32:47;100261.28;;;17.23;49.06
71299;BME280;59083;47.974;21.722;2022-09-12T16:35:49;100260.09;;;17.19;49.24
71299;BME280;59083;47.974;21.722;2022-09-12T16:38:52;100268.28;;;17.01;50.14
71299;BME280;59083;47.974;21.722;2022-09-12T16:41:54;100262.78;;;16.96;50.07
71299;BME280;59083;47.974;21.722;2022-09-12T16:44:55;100267.00;;;16.91;50.35
71299;BME280;59083;47.974;21.722;2022-09-12T16:47:56;100255.62;;;16.89;50.62
71299;BME280;59083;47.974;21.722;2022-09-12T16:50:59;100266.28;;;16.84;51.79
71299;BME280;59083;47.974;21.722;2022-09-12T16:54:04;100261.22;;;16.76;51.71
71299;BME280;59083;47.974;21.722;2022-09-12T16:57:05;100268.56;;;16.69;52.44
71299;BME280;59083;47.974;21.722;2022-09-12T17:00:07;100270.53;;;16.62;52.94
71299;BME280;59083;47.974;21.722;2022-09-12T17:03:08;100271.44;;;16.56;53.59
71299;BME280;59083;47.974;21.722;2022-09-12T17:06:12;100267.06;;;16.43;53.59
71299;BME280;59083;47.974;21.722;2022-09-12T17:09:14;100269.00;;;16.36;53.78
71299;BME280;59083;47.974;21.722;2022-09-12T17:12:18;100279.28;;;16.28;55.21
71299;BME280;59083;47.974;21.722;2022-09-12T17:15:19;100271.50;;;16.20;54.74
71299;BME280;59083;47.974;21.722;2022-09-12T17:18:21;100278.53;;;16.21;55.24
71299;BME280;59083;47.974;21.722;2022-09-12T17:21:22;100277.78;;;16.13;55.40
71299;BME280;59083;47.974;21.722;2022-09-12T17:24:24;100284.06;;;16.07;55.65
71299;BME280;59083;47.974;21.722;2022-09-12T17:27:25;100275.84;;;16.02;56.08
71299;BME280;59083;47.974;21.722;2022-09-12T17:30:27;100279.97;;;16.05;55.93
71299;BME280;59083;47.974;21.722;2022-09-12T17:33:28;100287.06;;;15.99;56.27
71299;BME280;59083;47.974;21.722;2022-09-12T17:36:30;100290.34;;;16.01;56.30
71299;BME280;59083;47.974;21.722;2022-09-12T17:39:31;100292.81;;;16.03;56.64
71299;BME280;59083;47.974;21.722;2022-09-12T17:42:33;100292.00;;;16.02;56.77
71299;BME280;59083;47.974;21.722;2022-09-12T17:45:35;100299.69;;;15.99;57.28
71299;BME280;59083;47.974;21.722;2022-09-12T17:48:36;100297.69;;;15.94;57.33
71299;BME280;59083;47.974;21.722;2022-09-12T17:51:38;100295.56;;;15.96;57.33
71299;BME280;59083;47.974;21.722;2022-09-12T17:54:41;100307.81;;;15.92;58.10
71299;BME280;59083;47.974;21.722;2022-09-12T17:57:42;100305.28;;;15.97;57.61